sensor_id;sensor_type;location;lat;lon;timestamp;temperature;humidity
26537;DHT22;14204;51.262;5.488;2023-04-01T00:00:29;11.50;99.90
26537;DHT22;14204;51.262;5.488;2023-04-01T00:02:55;11.50;99.90
26537;DHT22;14204;51.262;5.488;2023-04-01T00:05:21;11.60;99.90
26537;DHT22;14204;51.262;5.488;2023-04-01T00:07:47;11.50;99.90
26537;DHT22;14204;51.262;5.488;2023-04-01T00:10:13;11.50;99.90
26537;DHT22;14204;51.262;5.488;2023-04-01T00:12:39;11.60;99.90
26537;DHT22;14204;51.262;5.488;2023-04-01T00:15:07;11.60;99.90
26537;DHT22;14204;51.262;5.488;2023-04-01T00:17:33;11.50;99.90
26537;DHT22;14204;51.262;5.488;2023-04-01T00:19:59;11.50;99.90
26537;DHT22;14204;51.262;5.488;2023-04-01T00:22:25;11.50;99.90
26537;DHT22;14204;51.262;5.488;2023-04-01T00:24:51;11.60;99.90
26537;DHT22;14204;51.262;5.488;2023-04-01T00:27:18;11.50;99.90
26537;DHT22;14204;51.262;5.488;2023-04-01T00:29:45;11.60;99.90
26537;DHT22;14204;51.262;5.488;2023-04-01T00:32:12;11.60;99.90
26537;DHT22;14204;51.262;5.488;2023-04-01T00:34:37;11.50;99.90
26537;DHT22;14204;51.262;5.488;2023-04-01T00:37:03;11.50;99.90
26537;DHT22;14204;51.262;5.488;2023-04-01T00:39:30;11.50;99.90
26537;DHT22;14204;51.262;5.488;2023-04-01T00:41:56;11.50;99.90
26537;DHT22;14204;51.262;5.488;2023-04-01T00:44:24;11.50;99.90
26537;DHT22;14204;51.262;5.488;2023-04-01T00:46:51;11.40;99.90
26537;DHT22;14204;51.262;5.488;2023-04-01T00:49:20;11.50;99.90
26537;DHT22;14204;51.262;5.488;2023-04-01T00:51:50;11.50;99.90
26537;DHT22;14204;51.262;5.488;2023-04-01T00:54:19;11.40;99.90
26537;DHT22;14204;51.262;5.488;2023-04-01T00:57:23;11.50;99.90
26537;DHT22;14204;51.262;5.488;2023-04-01T00:59:46;11.40;99.90
26537;DHT22;14204;51.262;5.488;2023-04-01T01:02:13;11.50;99.90
26537;DHT22;14204;51.262;5.488;2023-04-01T01:04:40;11.50;99.90
26537;DHT22;14204;51.262;5.488;2023-04-01T01:07:31;11.60;99.90
26537;DHT22;14204;51.262;5.488;2023-04-01T01:10:13;11.60;99.90
26537;DHT22;14204;51.262;5.488;2023-04-01T01:18:11;11.50;99.90
26537;DHT22;14204;51.262;5.488;2023-04-01T01:24:17;11.50;99.90
26537;DHT22;14204;51.262;5.488;2023-04-01T01:26:59;11.60;99.90
26537;DHT22;14204;51.262;5.488;2023-04-01T01:37:32;11.50;99.90
26537;DHT22;14204;51.262;5.488;2023-04-01T01:40:06;11.50;99.90
26537;DHT22;14204;51.262;5.488;2023-04-01T01:42:36;11.50;99.90
26537;DHT22;14204;51.262;5.488;2023-04-01T01:45:04;11.50;99.90
26537;DHT22;14204;51.262;5.488;2023-04-01T01:47:31;11.50;99.90
26537;DHT22;14204;51.262;5.488;2023-04-01T01:49:59;11.50;99.90
26537;DHT22;14204;51.262;5.488;2023-04-01T01:52:27;11.50;99.90
26537;DHT22;14204;51.262;5.488;2023-04-01T01:54:55;11.50;99.90
26537;DHT22;14204;51.262;5.488;2023-04-01T01:57:36;11.50;99.90
26537;DHT22;14204;51.262;5.488;2023-04-01T02:00:09;11.60;99.90
26537;DHT22;14204;51.262;5.488;2023-04-01T02:02:40;11.60;99.90
26537;DHT22;14204;51.262;5.488;2023-04-01T02:05:10;11.60;99.90
26537;DHT22;14204;51.262;5.488;2023-04-01T02:07:37;11.50;99.90
26537;DHT22;14204;51.262;5.488;2023-04-01T02:10:05;11.60;99.90
26537;DHT22;14204;51.262;5.488;2023-04-01T02:12:33;11.50;99.90
26537;DHT22;14204;51.262;5.488;2023-04-01T02:15:10;11.50;99.90
26537;DHT22;14204;51.262;5.488;2023-04-01T02:17:42;11.50;99.90
26537;DHT22;14204;51.262;5.488;2023-04-01T02:20:18;11.60;99.90
26537;DHT22;14204;51.262;5.488;2023-04-01T02:22:51;11.60;99.90
26537;DHT22;14204;51.262;5.488;2023-04-01T02:25:22;11.60;99.90
26537;DHT22;14204;51.262;5.488;2023-04-01T02:27:49;11.60;99.90
26537;DHT22;14204;51.262;5.488;2023-04-01T02:30:16;11.60;99.90
26537;DHT22;14204;51.262;5.488;2023-04-01T02:32:42;11.50;99.90
26537;DHT22;14204;51.262;5.488;2023-04-01T02:35:10;11.50;99.90
26537;DHT22;14204;51.262;5.488;2023-04-01T02:37:38;11.60;99.90
26537;DHT22;14204;51.262;5.488;2023-04-01T02:40:08;11.60;99.90
26537;DHT22;14204;51.262;5.488;2023-04-01T02:42:35;11.60;99.90
26537;DHT22;14204;51.262;5.488;2023-04-01T02:45:02;11.60;99.90
26537;DHT22;14204;51.262;5.488;2023-04-01T02:47:28;11.60;99.90
26537;DHT22;14204;51.262;5.488;2023-04-01T02:49:54;11.60;99.90
26537;DHT22;14204;51.262;5.488;2023-04-01T02:52:24;11.60;99.90
26537;DHT22;14204;51.262;5.488;2023-04-01T02:54:50;11.60;99.90
26537;DHT22;14204;51.262;5.488;2023-04-01T02:57:15;11.60;99.90
26537;DHT22;14204;51.262;5.488;2023-04-01T02:59:41;11.60;99.90
26537;DHT22;14204;51.262;5.488;2023-04-01T03:02:07;11.60;99.90
26537;DHT22;14204;51.262;5.488;2023-04-01T03:04:35;11.60;99.90
26537;DHT22;14204;51.262;5.488;2023-04-01T03:07:01;11.60;99.90
26537;DHT22;14204;51.262;5.488;2023-04-01T03:09:27;11.50;99.90
26537;DHT22;14204;51.262;5.488;2023-04-01T03:11:54;11.40;99.90
26537;DHT22;14204;51.262;5.488;2023-04-01T03:14:20;11.50;99.90
26537;DHT22;14204;51.262;5.488;2023-04-01T03:16:45;11.50;99.90
26537;DHT22;14204;51.262;5.488;2023-04-01T03:19:11;11.50;99.90
26537;DHT22;14204;51.262;5.488;2023-04-01T03:21:37;11.40;99.90
26537;DHT22;14204;51.262;5.488;2023-04-01T03:24:02;11.40;99.90
26537;DHT22;14204;51.262;5.488;2023-04-01T03:26:28;11.40;99.90
26537;DHT22;14204;51.262;5.488;2023-04-01T03:28:54;11.50;99.90
26537;DHT22;14204;51.262;5.488;2023-04-01T03:31:21;11.40;99.90
26537;DHT22;14204;51.262;5.488;2023-04-01T03:33:46;11.50;99.90
26537;DHT22;14204;51.262;5.488;2023-04-01T03:36:13;11.50;99.90
26537;DHT22;14204;51.262;5.488;2023-04-01T03:38:40;11.50;99.90
26537;DHT22;14204;51.262;5.488;2023-04-01T03:41:06;11.50;99.90
26537;DHT22;14204;51.262;5.488;2023-04-01T03:43:32;11.50;99.90
26537;DHT22;14204;51.262;5.488;2023-04-01T03:45:58;11.40;99.90
26537;DHT22;14204;51.262;5.488;2023-04-01T03:48:24;11.40;99.90
26537;DHT22;14204;51.262;5.488;2023-04-01T03:50:50;11.50;99.90
26537;DHT22;14204;51.262;5.488;2023-04-01T03:53:16;11.40;99.90
26537;DHT22;14204;51.262;5.488;2023-04-01T03:55:42;11.40;99.90
26537;DHT22;14204;51.262;5.488;2023-04-01T03:58:08;11.40;99.90
26537;DHT22;14204;51.262;5.488;2023-04-01T04:00:34;11.40;99.90
26537;DHT22;14204;51.262;5.488;2023-04-01T04:03:00;11.40;99.90
26537;DHT22;14204;51.262;5.488;2023-04-01T04:05:26;11.40;99.90
26537;DHT22;14204;51.262;5.488;2023-04-01T04:07:52;11.40;99.90
26537;DHT22;14204;51.262;5.488;2023-04-01T04:10:19;11.30;99.90
26537;DHT22;14204;51.262;5.488;2023-04-01T04:12:44;11.30;99.90
26537;DHT22;14204;51.262;5.488;2023-04-01T04:15:10;11.30;99.90
26537;DHT22;14204;51.262;5.488;2023-04-01T04:17:36;11.40;99.90
26537;DHT22;14204;51.262;5.488;2023-04-01T04:20:02;11.40;99.90
26537;DHT22;14204;51.262;5.488;2023-04-01T04:22:28;11.40;99.90
26537;DHT22;14204;51.262;5.488;2023-04-01T04:24:54;11.40;99.90
26537;DHT22;14204;51.262;5.488;2023-04-01T04:27:19;11.40;99.90
26537;DHT22;14204;51.262;5.488;2023-04-01T04:29:45;11.30;99.90
26537;DHT22;14204;51.262;5.488;2023-04-01T04:32:11;11.30;99.90
26537;DHT22;14204;51.262;5.488;2023-04-01T04:34:36;11.30;99.90
26537;DHT22;14204;51.262;5.488;2023-04-01T04:37:02;11.30;99.90
26537;DHT22;14204;51.262;5.488;2023-04-01T04:39:28;11.30;99.90
26537;DHT22;14204;51.262;5.488;2023-04-01T04:41:54;11.30;99.90
26537;DHT22;14204;51.262;5.488;2023-04-01T04:44:20;11.30;99.90
26537;DHT22;14204;51.262;5.488;2023-04-01T04:46:46;11.30;99.90
26537;DHT22;14204;51.262;5.488;2023-04-01T04:49:12;11.30;99.90
26537;DHT22;14204;51.262;5.488;2023-04-01T04:51:37;11.30;99.90
26537;DHT22;14204;51.262;5.488;2023-04-01T04:54:04;11.30;99.90
26537;DHT22;14204;51.262;5.488;2023-04-01T04:56:30;11.30;99.90
26537;DHT22;14204;51.262;5.488;2023-04-01T04:58:56;11.30;99.90
26537;DHT22;14204;51.262;5.488;2023-04-01T05:01:22;11.30;99.90
26537;DHT22;14204;51.262;5.488;2023-04-01T05:03:47;11.20;99.90
26537;DHT22;14204;51.262;5.488;2023-04-01T05:06:15;11.20;99.90
26537;DHT22;14204;51.262;5.488;2023-04-01T05:08:42;11.30;99.90
26537;DHT22;14204;51.262;5.488;2023-04-01T05:11:11;11.20;99.90
26537;DHT22;14204;51.262;5.488;2023-04-01T05:13:37;11.20;99.90
26537;DHT22;14204;51.262;5.488;2023-04-01T05:16:03;11.20;99.90
26537;DHT22;14204;51.262;5.488;2023-04-01T05:18:32;11.20;99.90
26537;DHT22;14204;51.262;5.488;2023-04-01T05:20:58;11.20;99.90
26537;DHT22;14204;51.262;5.488;2023-04-01T05:23:23;11.30;99.90
26537;DHT22;14204;51.262;5.488;2023-04-01T05:25:49;11.20;99.90
26537;DHT22;14204;51.262;5.488;2023-04-01T05:28:16;11.20;99.90
26537;DHT22;14204;51.262;5.488;2023-04-01T05:30:43;11.10;99.90
26537;DHT22;14204;51.262;5.488;2023-04-01T05:33:10;11.20;99.90
26537;DHT22;14204;51.262;5.488;2023-04-01T05:35:36;11.30;99.90
26537;DHT22;14204;51.262;5.488;2023-04-01T05:38:02;11.30;99.90
26537;DHT22;14204;51.262;5.488;2023-04-01T05:40:28;11.30;99.90
26537;DHT22;14204;51.262;5.488;2023-04-01T05:42:54;11.30;99.90
26537;DHT22;14204;51.262;5.488;2023-04-01T05:45:20;11.30;99.90
26537;DHT22;14204;51.262;5.488;2023-04-01T05:47:46;11.40;99.90
26537;DHT22;14204;51.262;5.488;2023-04-01T05:50:12;11.40;99.90
26537;DHT22;14204;51.262;5.488;2023-04-01T05:52:38;11.40;99.90
26537;DHT22;14204;51.262;5.488;2023-04-01T05:55:04;11.40;99.90
26537;DHT22;14204;51.262;5.488;2023-04-01T05:57:30;11.20;99.90
26537;DHT22;14204;51.262;5.488;2023-04-01T05:59:56;11.20;99.90
26537;DHT22;14204;51.262;5.488;2023-04-01T06:02:21;11.20;99.90
26537;DHT22;14204;51.262;5.488;2023-04-01T06:04:47;11.30;99.90
26537;DHT22;14204;51.262;5.488;2023-04-01T06:07:15;11.30;99.90
26537;DHT22;14204;51.262;5.488;2023-04-01T06:09:41;11.30;99.90
26537;DHT22;14204;51.262;5.488;2023-04-01T06:24:19;11.30;99.90
26537;DHT22;14204;51.262;5.488;2023-04-01T06:56:12;11.40;99.90
26537;DHT22;14204;51.262;5.488;2023-04-01T07:01:34;11.20;99.90
26537;DHT22;14204;51.262;5.488;2023-04-01T07:04:06;11.30;99.90
26537;DHT22;14204;51.262;5.488;2023-04-01T07:06:43;11.40;99.90
26537;DHT22;14204;51.262;5.488;2023-04-01T07:09:14;11.40;99.90
26537;DHT22;14204;51.262;5.488;2023-04-01T07:11:42;11.30;99.90
26537;DHT22;14204;51.262;5.488;2023-04-01T07:14:32;11.40;99.90
26537;DHT22;14204;51.262;5.488;2023-04-01T07:17:25;11.40;99.90
26537;DHT22;14204;51.262;5.488;2023-04-01T07:20:32;11.50;99.90
26537;DHT22;14204;51.262;5.488;2023-04-01T07:22:55;11.40;99.90
26537;DHT22;14204;51.262;5.488;2023-04-01T07:25:29;11.50;99.90
26537;DHT22;14204;51.262;5.488;2023-04-01T07:28:03;11.40;99.90
26537;DHT22;14204;51.262;5.488;2023-04-01T07:30:35;11.40;99.90
26537;DHT22;14204;51.262;5.488;2023-04-01T07:33:12;11.40;99.90
26537;DHT22;14204;51.262;5.488;2023-04-01T07:35:56;11.40;99.90
26537;DHT22;14204;51.262;5.488;2023-04-01T07:41:02;11.50;99.90
26537;DHT22;14204;51.262;5.488;2023-04-01T07:49:09;11.50;99.90
26537;DHT22;14204;51.262;5.488;2023-04-01T08:07:54;11.40;99.90
26537;DHT22;14204;51.262;5.488;2023-04-01T08:10:36;11.50;99.90
26537;DHT22;14204;51.262;5.488;2023-04-01T08:18:40;11.50;99.90
26537;DHT22;14204;51.262;5.488;2023-04-01T08:21:23;11.50;99.90
26537;DHT22;14204;51.262;5.488;2023-04-01T08:23:51;11.60;99.90
26537;DHT22;14204;51.262;5.488;2023-04-01T08:26:30;11.50;99.90
26537;DHT22;14204;51.262;5.488;2023-04-01T08:29:19;11.60;99.90
26537;DHT22;14204;51.262;5.488;2023-04-01T08:34:42;11.70;99.90
26537;DHT22;14204;51.262;5.488;2023-04-01T08:37:19;11.80;99.90
26537;DHT22;14204;51.262;5.488;2023-04-01T08:39:51;11.70;99.90
26537;DHT22;14204;51.262;5.488;2023-04-01T08:45:26;11.80;99.90
26537;DHT22;14204;51.262;5.488;2023-04-01T08:48:04;11.80;99.90
26537;DHT22;14204;51.262;5.488;2023-04-01T09:06:56;11.90;99.90
26537;DHT22;14204;51.262;5.488;2023-04-01T09:09:30;11.90;99.90
26537;DHT22;14204;51.262;5.488;2023-04-01T09:28:57;11.90;99.90
26537;DHT22;14204;51.262;5.488;2023-04-01T09:32:04;11.90;99.90
26537;DHT22;14204;51.262;5.488;2023-04-01T09:43:06;12.10;99.90
26537;DHT22;14204;51.262;5.488;2023-04-01T09:46:00;12.00;99.90
26537;DHT22;14204;51.262;5.488;2023-04-01T09:51:37;12.00;99.90
26537;DHT22;14204;51.262;5.488;2023-04-01T10:08:30;12.00;99.90
26537;DHT22;14204;51.262;5.488;2023-04-01T10:13:55;12.10;99.90
26537;DHT22;14204;51.262;5.488;2023-04-01T10:19:52;12.00;99.90
26537;DHT22;14204;51.262;5.488;2023-04-01T11:01:27;12.40;99.90
26537;DHT22;14204;51.262;5.488;2023-04-01T11:04:40;12.50;99.90
26537;DHT22;14204;51.262;5.488;2023-04-01T11:10:11;12.40;99.90
26537;DHT22;14204;51.262;5.488;2023-04-01T11:16:12;12.20;99.90
26537;DHT22;14204;51.262;5.488;2023-04-01T11:30:41;12.40;99.90
26537;DHT22;14204;51.262;5.488;2023-04-01T11:39:04;12.60;99.90
26537;DHT22;14204;51.262;5.488;2023-04-01T11:41:37;12.60;99.90
26537;DHT22;14204;51.262;5.488;2023-04-01T12:18:14;13.00;99.90
26537;DHT22;14204;51.262;5.488;2023-04-01T12:20:49;13.00;99.90
26537;DHT22;14204;51.262;5.488;2023-04-01T12:29:05;13.20;99.90
26537;DHT22;14204;51.262;5.488;2023-04-01T13:01:30;12.90;99.90
26537;DHT22;14204;51.262;5.488;2023-04-01T13:15:41;12.80;99.90
26537;DHT22;14204;51.262;5.488;2023-04-01T13:21:16;12.90;99.90
26537;DHT22;14204;51.262;5.488;2023-04-01T13:27:25;12.90;99.90
26537;DHT22;14204;51.262;5.488;2023-04-01T13:33:07;12.90;99.90
26537;DHT22;14204;51.262;5.488;2023-04-01T13:35:46;12.90;99.90
26537;DHT22;14204;51.262;5.488;2023-04-01T13:39:02;12.90;99.90
26537;DHT22;14204;51.262;5.488;2023-04-01T13:41:41;13.00;99.90
26537;DHT22;14204;51.262;5.488;2023-04-01T13:44:18;13.00;99.90
26537;DHT22;14204;51.262;5.488;2023-04-01T13:50:17;12.90;99.90
26537;DHT22;14204;51.262;5.488;2023-04-01T14:09:09;12.60;99.90
26537;DHT22;14204;51.262;5.488;2023-04-01T14:14:48;12.70;99.90
26537;DHT22;14204;51.262;5.488;2023-04-01T14:17:35;12.70;99.90
26537;DHT22;14204;51.262;5.488;2023-04-01T14:23:16;12.60;99.90
26537;DHT22;14204;51.262;5.488;2023-04-01T14:31:42;12.50;99.90
26537;DHT22;14204;51.262;5.488;2023-04-01T14:34:34;12.50;99.90
26537;DHT22;14204;51.262;5.488;2023-04-01T14:40:28;12.40;99.90
26537;DHT22;14204;51.262;5.488;2023-04-01T14:49:41;12.60;99.90
26537;DHT22;14204;51.262;5.488;2023-04-01T14:52:22;12.60;99.90
26537;DHT22;14204;51.262;5.488;2023-04-01T14:54:49;12.60;99.90
26537;DHT22;14204;51.262;5.488;2023-04-01T14:57:30;12.70;99.90
26537;DHT22;14204;51.262;5.488;2023-04-01T15:00:16;12.70;99.90
26537;DHT22;14204;51.262;5.488;2023-04-01T15:02:55;12.70;99.90
26537;DHT22;14204;51.262;5.488;2023-04-01T15:31:01;12.50;99.90
26537;DHT22;14204;51.262;5.488;2023-04-01T15:55:43;12.30;99.90
26537;DHT22;14204;51.262;5.488;2023-04-01T16:09:50;12.40;99.90
26537;DHT22;14204;51.262;5.488;2023-04-01T16:15:27;12.30;99.90
26537;DHT22;14204;51.262;5.488;2023-04-01T16:18:17;12.40;99.90
26537;DHT22;14204;51.262;5.488;2023-04-01T16:20:55;12.30;99.90
26537;DHT22;14204;51.262;5.488;2023-04-01T16:23:36;12.50;99.90
26537;DHT22;14204;51.262;5.488;2023-04-01T16:31:43;12.30;99.90
26537;DHT22;14204;51.262;5.488;2023-04-01T16:34:47;12.30;99.90
26537;DHT22;14204;51.262;5.488;2023-04-01T16:37:21;12.30;99.90
26537;DHT22;14204;51.262;5.488;2023-04-01T16:48:45;12.20;99.90
26537;DHT22;14204;51.262;5.488;2023-04-01T16:51:16;12.10;99.90
26537;DHT22;14204;51.262;5.488;2023-04-01T16:53:44;12.00;99.90
26537;DHT22;14204;51.262;5.488;2023-04-01T16:56:15;12.00;99.90
26537;DHT22;14204;51.262;5.488;2023-04-01T17:01:24;11.90;99.90
26537;DHT22;14204;51.262;5.488;2023-04-01T17:03:58;12.00;99.90
26537;DHT22;14204;51.262;5.488;2023-04-01T17:06:40;12.00;99.90
26537;DHT22;14204;51.262;5.488;2023-04-01T17:12:18;11.90;99.90
26537;DHT22;14204;51.262;5.488;2023-04-01T17:14:53;11.90;99.90
26537;DHT22;14204;51.262;5.488;2023-04-01T17:20:43;12.00;99.90
26537;DHT22;14204;51.262;5.488;2023-04-01T17:28:52;11.80;99.90
26537;DHT22;14204;51.262;5.488;2023-04-01T17:42:16;11.70;99.90
26537;DHT22;14204;51.262;5.488;2023-04-01T17:47:35;11.70;99.90
26537;DHT22;14204;51.262;5.488;2023-04-01T17:50:36;11.70;99.90
26537;DHT22;14204;51.262;5.488;2023-04-01T18:24:18;11.80;99.90
26537;DHT22;14204;51.262;5.488;2023-04-01T18:27:15;11.80;99.90
26537;DHT22;14204;51.262;5.488;2023-04-01T18:29:55;11.80;99.90
26537;DHT22;14204;51.262;5.488;2023-04-01T18:35:24;12.00;99.90
26537;DHT22;14204;51.262;5.488;2023-04-01T18:40:37;12.20;99.90
26537;DHT22;14204;51.262;5.488;2023-04-01T18:46:32;12.30;99.90
26537;DHT22;14204;51.262;5.488;2023-04-01T18:49:27;12.30;99.90
26537;DHT22;14204;51.262;5.488;2023-04-01T18:52:11;12.40;99.90
26537;DHT22;14204;51.262;5.488;2023-04-01T18:55:14;12.40;99.90
26537;DHT22;14204;51.262;5.488;2023-04-01T18:57:52;12.40;99.90
26537;DHT22;14204;51.262;5.488;2023-04-01T19:00:39;12.40;99.90
26537;DHT22;14204;51.262;5.488;2023-04-01T19:03:38;12.50;99.90
26537;DHT22;14204;51.262;5.488;2023-04-01T19:06:33;12.50;99.90
26537;DHT22;14204;51.262;5.488;2023-04-01T19:09:16;12.60;99.90
26537;DHT22;14204;51.262;5.488;2023-04-01T19:39:18;12.40;99.90
26537;DHT22;14204;51.262;5.488;2023-04-01T19:48:13;12.30;99.90
26537;DHT22;14204;51.262;5.488;2023-04-01T19:51:03;12.20;99.90
26537;DHT22;14204;51.262;5.488;2023-04-01T19:56:15;12.20;99.90
26537;DHT22;14204;51.262;5.488;2023-04-01T19:58:48;12.20;99.90
26537;DHT22;14204;51.262;5.488;2023-04-01T20:01:36;12.20;99.90
26537;DHT22;14204;51.262;5.488;2023-04-01T20:04:08;12.20;99.90
26537;DHT22;14204;51.262;5.488;2023-04-01T20:09:58;12.30;99.90
26537;DHT22;14204;51.262;5.488;2023-04-01T20:15:41;12.10;99.90
26537;DHT22;14204;51.262;5.488;2023-04-01T20:18:24;12.20;99.90
26537;DHT22;14204;51.262;5.488;2023-04-01T20:21:02;12.10;99.90
26537;DHT22;14204;51.262;5.488;2023-04-01T20:23:33;12.10;99.90
26537;DHT22;14204;51.262;5.488;2023-04-01T20:26:13;12.00;99.90
26537;DHT22;14204;51.262;5.488;2023-04-01T20:28:47;12.00;99.90
26537;DHT22;14204;51.262;5.488;2023-04-01T20:42:55;12.00;99.90
26537;DHT22;14204;51.262;5.488;2023-04-01T20:45:38;12.00;99.90
26537;DHT22;14204;51.262;5.488;2023-04-01T20:48:34;11.90;99.90
26537;DHT22;14204;51.262;5.488;2023-04-01T20:51:09;11.90;99.90
26537;DHT22;14204;51.262;5.488;2023-04-01T20:56:41;12.00;99.90
26537;DHT22;14204;51.262;5.488;2023-04-01T21:07:56;11.80;99.90
26537;DHT22;14204;51.262;5.488;2023-04-01T21:16:12;11.60;99.90
26537;DHT22;14204;51.262;5.488;2023-04-01T21:24:43;11.60;99.90
26537;DHT22;14204;51.262;5.488;2023-04-01T21:27:25;11.60;99.90
26537;DHT22;14204;51.262;5.488;2023-04-01T21:36:03;11.60;99.90
26537;DHT22;14204;51.262;5.488;2023-04-01T21:38:58;11.60;99.90
26537;DHT22;14204;51.262;5.488;2023-04-01T21:41:29;11.60;99.90
26537;DHT22;14204;51.262;5.488;2023-04-01T21:44:32;11.50;99.90
26537;DHT22;14204;51.262;5.488;2023-04-01T22:00:33;11.20;99.90
26537;DHT22;14204;51.262;5.488;2023-04-01T22:11:33;11.20;99.90
26537;DHT22;14204;51.262;5.488;2023-04-01T22:17:11;11.10;99.90
26537;DHT22;14204;51.262;5.488;2023-04-01T22:19:56;11.10;99.90
26537;DHT22;14204;51.262;5.488;2023-04-01T22:25:14;11.00;99.90
26537;DHT22;14204;51.262;5.488;2023-04-01T22:27:52;11.00;99.90
26537;DHT22;14204;51.262;5.488;2023-04-01T22:30:29;11.00;99.90
26537;DHT22;14204;51.262;5.488;2023-04-01T22:33:03;11.00;99.90
26537;DHT22;14204;51.262;5.488;2023-04-01T22:43:52;11.10;99.90
26537;DHT22;14204;51.262;5.488;2023-04-01T22:56:53;10.90;99.90
26537;DHT22;14204;51.262;5.488;2023-04-01T23:01:55;11.00;99.90
26537;DHT22;14204;51.262;5.488;2023-04-01T23:04:30;10.90;99.90
26537;DHT22;14204;51.262;5.488;2023-04-01T23:07:01;10.90;99.90
26537;DHT22;14204;51.262;5.488;2023-04-01T23:09:30;10.80;99.90
26537;DHT22;14204;51.262;5.488;2023-04-01T23:12:03;10.70;99.90
26537;DHT22;14204;51.262;5.488;2023-04-01T23:14:39;10.60;99.90
26537;DHT22;14204;51.262;5.488;2023-04-01T23:25:48;10.60;99.90
26537;DHT22;14204;51.262;5.488;2023-04-01T23:35:51;10.60;99.90
26537;DHT22;14204;51.262;5.488;2023-04-01T23:38:19;10.40;99.90
26537;DHT22;14204;51.262;5.488;2023-04-01T23:40:49;10.40;99.90
26537;DHT22;14204;51.262;5.488;2023-04-01T23:43:28;10.40;99.90
26537;DHT22;14204;51.262;5.488;2023-04-01T23:45:57;10.40;99.90
26537;DHT22;14204;51.262;5.488;2023-04-01T23:48:29;10.40;99.90
26537;DHT22;14204;51.262;5.488;2023-04-01T23:50:56;10.40;99.90
26537;DHT22;14204;51.262;5.488;2023-04-01T23:53:34;10.30;99.90
26537;DHT22;14204;51.262;5.488;2023-04-01T23:56:02;10.30;99.90
26537;DHT22;14204;51.262;5.488;2023-04-01T23:58:42;10.30;99.90
